Time;durP1;ratioP1;P1;durP2;ratioP2;P2;SDS_P1;SDS_P2;PMS_P1;PMS_P2;Temp;Humidity;BMP_temperature;BMP_pressure;BME280_temperature;BME280_humidity;BME280_pressure;Samples;Min_cycle;Max_cycle;Signal;HPM_P1;HPM_P2
2021/01/01 00:01:53;;;;;;;5.27;3.57;;;2.40;98.00;;;;;;5054437;28;20461;-65
2021/01/01 00:04:22;;;;;;;1.60;1.60;;;2.20;98.00;;;;;;5052264;28;20503;-65
2021/01/01 00:06:50;;;;;;;3.30;2.43;;;2.20;98.00;;;;;;5053967;28;20528;-65
2021/01/01 00:11:59;;;;;;;3.97;2.80;;;2.00;98.00;;;;;;5054856;28;20529;-65
2021/01/01 00:14:27;;;;;;;1.80;1.73;;;2.10;98.00;;;;;;5051086;28;20472;-66
2021/01/01 00:16:53;;;;;;;2.60;2.00;;;2.10;98.00;;;;;;5053565;28;20457;-65
2021/01/01 00:19:21;;;;;;;2.30;2.03;;;2.10;98.00;;;;;;5052774;28;20511;-67
2021/01/01 00:21:48;;;;;;;1.83;1.70;;;2.00;98.00;;;;;;5054651;28;20453;-65
2021/01/01 00:24:16;;;;;;;2.03;1.90;;;2.10;98.00;;;;;;5052111;28;20464;-66
2021/01/01 00:26:43;;;;;;;2.20;2.00;;;2.10;98.00;;;;;;5053336;28;20496;-65
2021/01/01 00:29:09;;;;;;;1.77;1.23;;;2.10;98.00;;;;;;5052136;28;20464;-65
2021/01/01 00:31:37;;;;;;;1.57;1.47;;;2.10;98.00;;;;;;5054413;28;20494;-67
2021/01/01 00:34:04;;;;;;;1.50;1.37;;;2.10;98.00;;;;;;5051888;28;20464;-65
2021/01/01 00:36:30;;;;;;;3.40;2.07;;;2.10;98.00;;;;;;5054197;28;20472;-66
2021/01/01 00:39:01;;;;;;;1.40;1.30;;;2.10;98.00;;;;;;5052258;28;20515;-65
2021/01/01 00:41:29;;;;;;;1.10;1.00;;;2.00;98.00;;;;;;5054255;28;20456;-66
2021/01/01 00:43:56;;;;;;;1.40;1.20;;;2.10;98.00;;;;;;5051869;28;20514;-66
2021/01/01 00:46:24;;;;;;;1.47;1.40;;;2.10;98.00;;;;;;5053525;28;20484;-66
2021/01/01 00:48:51;;;;;;;1.77;1.67;;;2.10;98.00;;;;;;5052025;28;20553;-65
2021/01/01 00:51:25;;;;;;;1.20;1.10;;;2.20;98.00;;;;;;5054220;28;20469;-66
2021/01/01 00:53:53;;;;;;;1.10;1.00;;;2.20;98.00;;;;;;5052240;28;20859;-65
2021/01/01 00:56:20;;;;;;;1.60;1.50;;;2.20;98.00;;;;;;5054209;28;21187;-66
2021/01/01 00:58:49;;;;;;;2.33;2.13;;;2.20;98.00;;;;;;5052221;28;20468;-65
2021/01/01 01:01:16;;;;;;;11.40;3.60;;;2.20;98.00;;;;;;5053965;28;20459;-66
2021/01/01 01:03:44;;;;;;;1.53;1.43;;;2.20;98.00;;;;;;5052025;28;20544;-67
2021/01/01 01:06:12;;;;;;;1.90;1.57;;;2.20;98.00;;;;;;5052509;28;20550;-66
2021/01/01 01:08:38;;;;;;;4.23;1.73;;;2.30;98.00;;;;;;5051852;28;20472;-65
2021/01/01 01:11:05;;;;;;;1.57;1.37;;;2.30;98.00;;;;;;5052441;28;20455;-65
2021/01/01 01:13:32;;;;;;;3.47;1.60;;;2.30;98.00;;;;;;5051842;28;20458;-66
2021/01/01 01:15:58;;;;;;;1.50;1.43;;;2.30;98.00;;;;;;5053587;28;20462;-65
2021/01/01 01:18:25;;;;;;;1.77;1.50;;;2.30;98.00;;;;;;5051722;28;20531;-64
2021/01/01 01:20:51;;;;;;;1.10;1.03;;;2.30;98.00;;;;;;5053220;28;20457;-67
2021/01/01 01:23:20;;;;;;;3.20;2.13;;;2.30;98.00;;;;;;5051807;28;20461;-65
2021/01/01 01:25:47;;;;;;;4.67;1.37;;;2.40;98.00;;;;;;5053498;28;20499;-65
2021/01/01 01:28:14;;;;;;;2.27;1.43;;;2.50;98.00;;;;;;5051960;28;20825;-66
2021/01/01 01:30:40;;;;;;;1.80;1.43;;;2.60;98.00;;;;;;5053402;28;20458;-66
2021/01/01 01:33:08;;;;;;;2.70;2.10;;;2.60;98.00;;;;;;5051138;28;20863;-65
2021/01/01 01:35:34;;;;;;;1.10;1.10;;;2.70;98.00;;;;;;5053173;28;20504;-66
2021/01/01 01:38:01;;;;;;;1.40;1.27;;;2.80;98.00;;;;;;5051258;28;20466;-66
2021/01/01 01:40:29;;;;;;;2.37;1.50;;;2.80;98.00;;;;;;5052907;28;20445;-66
2021/01/01 01:42:58;;;;;;;1.50;1.10;;;2.90;98.00;;;;;;5051359;28;21013;-65
2021/01/01 01:45:25;;;;;;;1.53;1.27;;;2.70;98.00;;;;;;5052647;28;20481;-65
2021/01/01 01:47:52;;;;;;;2.17;1.93;;;2.70;98.00;;;;;;5051085;28;20867;-66
2021/01/01 01:50:19;;;;;;;1.20;1.13;;;2.70;98.00;;;;;;5052913;28;20484;-65
2021/01/01 01:52:49;;;;;;;1.20;1.10;;;2.80;98.00;;;;;;5050940;28;20469;-65
2021/01/01 01:55:16;;;;;;;2.90;2.23;;;2.90;98.00;;;;;;5051650;28;20454;-65
2021/01/01 01:57:44;;;;;;;2.23;1.63;;;2.90;98.00;;;;;;5050685;28;20461;-65
2021/01/01 02:00:31;;;;;;;1.83;1.77;;;3.00;98.00;;;;;;5052615;28;20967;-66
2021/01/01 02:03:02;;;;;;;3.30;2.03;;;3.00;98.00;;;;;;5050705;28;20453;-66
2021/01/01 02:05:29;;;;;;;1.47;1.43;;;2.90;98.00;;;;;;5052654;28;20489;-66
2021/01/01 02:07:58;;;;;;;2.23;1.20;;;3.00;98.00;;;;;;5050825;28;20454;-65
2021/01/01 02:10:25;;;;;;;3.57;2.30;;;3.10;98.00;;;;;;5052492;28;20462;-64
2021/01/01 02:12:52;;;;;;;1.47;1.40;;;3.00;98.00;;;;;;5050363;28;21002;-64
2021/01/01 02:15:19;;;;;;;1.67;1.20;;;2.90;98.00;;;;;;5052391;28;20461;-66
2021/01/01 02:17:46;;;;;;;4.77;3.90;;;2.90;98.00;;;;;;5050426;28;20469;-65
2021/01/01 02:20:13;;;;;;;2.27;1.73;;;2.90;98.00;;;;;;5051445;28;20876;-66
2021/01/01 02:22:41;;;;;;;3.83;1.43;;;2.90;98.00;;;;;;5049826;28;20454;-66
2021/01/01 02:25:10;;;;;;;1.60;1.40;;;3.10;98.00;;;;;;5052481;28;20495;-66
2021/01/01 02:27:38;;;;;;;3.20;2.40;;;3.20;98.00;;;;;;5050688;28;20458;-66
2021/01/01 02:30:06;;;;;;;1.60;1.20;;;3.10;98.00;;;;;;5052304;28;20462;-64
2021/01/01 02:32:33;;;;;;;1.20;1.20;;;3.10;98.00;;;;;;5050706;28;20465;-64
2021/01/01 02:34:59;;;;;;;1.60;1.30;;;3.10;98.00;;;;;;5052311;28;20461;-64
2021/01/01 02:37:26;;;;;;;1.20;1.17;;;3.10;98.00;;;;;;5052356;28;20461;-65
2021/01/01 02:39:54;;;;;;;2.03;1.40;;;3.10;98.00;;;;;;5049390;28;20484;-65
2021/01/01 02:42:21;;;;;;;2.47;1.77;;;3.10;98.00;;;;;;5052287;28;20453;-65
2021/01/01 02:44:51;;;;;;;6.63;2.90;;;3.20;98.00;;;;;;5050050;28;21250;-66
2021/01/01 02:47:17;;;;;;;1.40;1.40;;;3.30;98.00;;;;;;5051965;28;20929;-65
2021/01/01 02:49:44;;;;;;;2.93;2.73;;;3.10;98.00;;;;;;5050085;28;20458;-65
2021/01/01 02:52:11;;;;;;;3.80;2.13;;;3.10;98.00;;;;;;5051938;28;20480;-65
2021/01/01 02:54:37;;;;;;;1.20;1.20;;;3.00;98.00;;;;;;5049847;28;20475;-65
2021/01/01 02:57:05;;;;;;;6.83;2.60;;;3.00;98.00;;;;;;5051655;28;20485;-65
2021/01/01 02:59:32;;;;;;;2.90;1.53;;;3.00;98.00;;;;;;5049721;28;20453;-66
2021/01/01 03:01:59;;;;;;;2.17;1.40;;;3.10;98.00;;;;;;5050544;28;20442;-65
2021/01/01 03:04:25;;;;;;;3.60;1.90;;;3.00;98.00;;;;;;5049568;28;20505;-65
2021/01/01 03:06:52;;;;;;;1.43;1.37;;;3.10;98.00;;;;;;5051494;28;20567;-65
2021/01/01 03:09:18;;;;;;;1.73;1.60;;;3.00;98.00;;;;;;5049632;28;20535;-66
2021/01/01 03:11:45;;;;;;;1.40;1.40;;;3.20;98.00;;;;;;5051567;28;20465;-65
2021/01/01 03:14:12;;;;;;;2.80;2.13;;;3.30;98.00;;;;;;5049527;28;20488;-65
2021/01/01 03:16:39;;;;;;;5.03;2.77;;;3.20;98.00;;;;;;5050188;28;20450;-66
2021/01/01 03:19:06;;;;;;;5.47;2.10;;;3.10;98.00;;;;;;5049375;28;20462;-65
2021/01/01 03:21:32;;;;;;;1.10;1.10;;;3.10;98.00;;;;;;5051456;28;21000;-66
2021/01/01 03:23:59;;;;;;;1.50;1.40;;;3.10;98.00;;;;;;5049526;28;20484;-64
2021/01/01 03:26:25;;;;;;;1.40;1.30;;;3.00;98.00;;;;;;5051229;28;20565;-65
2021/01/01 03:28:52;;;;;;;1.73;1.67;;;3.00;98.00;;;;;;5049436;28;20462;-65
2021/01/01 03:31:19;;;;;;;3.70;2.53;;;3.00;98.00;;;;;;5051231;28;20484;-65
2021/01/01 03:33:46;;;;;;;1.97;1.60;;;2.90;98.00;;;;;;5048756;28;20878;-65
2021/01/01 03:36:12;;;;;;;1.50;1.50;;;3.00;98.00;;;;;;5051148;28;20471;-65
2021/01/01 03:38:39;;;;;;;1.60;1.40;;;3.10;98.00;;;;;;5048281;28;21096;-65
2021/01/01 03:41:05;;;;;;;5.40;3.53;;;3.10;98.00;;;;;;5051030;28;20469;-66
2021/01/01 03:43:32;;;;;;;8.30;2.53;;;3.10;98.00;;;;;;5049358;28;20461;-65
2021/01/01 03:45:58;;;;;;;4.07;2.20;;;3.20;98.00;;;;;;5051131;28;20562;-66
2021/01/01 03:48:26;;;;;;;1.37;1.30;;;3.30;98.00;;;;;;5049138;28;20461;-66
2021/01/01 03:50:53;;;;;;;1.60;1.53;;;3.40;98.00;;;;;;5050915;28;20469;-65
2021/01/01 03:53:20;;;;;;;1.97;1.87;;;3.30;98.00;;;;;;5049368;28;20480;-64
2021/01/01 03:55:46;;;;;;;4.17;2.37;;;3.40;98.00;;;;;;5051096;28;20472;-66
2021/01/01 03:58:13;;;;;;;2.70;1.60;;;3.40;98.00;;;;;;5048969;28;20457;-65
2021/01/01 04:00:39;;;;;;;3.20;1.70;;;3.30;98.00;;;;;;5049666;28;20461;-66
2021/01/01 04:03:06;;;;;;;2.90;2.30;;;3.20;98.00;;;;;;5049277;28;20484;-65
2021/01/01 04:05:33;;;;;;;3.97;2.17;;;3.20;98.00;;;;;;5050614;28;20543;-65
2021/01/01 04:08:00;;;;;;;1.47;1.43;;;3.20;98.00;;;;;;5049032;28;20453;-65
2021/01/01 04:10:26;;;;;;;1.67;1.57;;;3.10;98.00;;;;;;5051003;28;20460;-66
2021/01/01 04:12:53;;;;;;;1.53;1.47;;;3.10;98.00;;;;;;5048944;28;20528;-66
2021/01/01 04:15:19;;;;;;;2.50;2.30;;;3.10;98.00;;;;;;5051290;28;20450;-65
2021/01/01 04:17:46;;;;;;;2.90;1.63;;;3.10;98.00;;;;;;5049264;28;20457;-66
2021/01/01 04:20:13;;;;;;;1.63;1.53;;;3.00;98.00;;;;;;5051013;28;20461;-65
2021/01/01 04:22:41;;;;;;;1.20;1.20;;;3.00;98.00;;;;;;5049692;28;20450;-65
2021/01/01 04:25:08;;;;;;;3.43;2.23;;;3.00;98.00;;;;;;5050265;28;20481;-65
2021/01/01 04:27:35;;;;;;;2.07;1.47;;;3.00;98.00;;;;;;5050727;28;20956;-65
2021/01/01 04:30:02;;;;;;;1.97;1.50;;;3.10;98.00;;;;;;5047716;28;20520;-66
2021/01/01 04:32:28;;;;;;;3.63;2.70;;;3.20;98.00;;;;;;5050796;28;20462;-66
2021/01/01 04:34:55;;;;;;;1.80;1.10;;;3.20;98.00;;;;;;5048858;28;20884;-65
2021/01/01 04:37:22;;;;;;;3.27;1.97;;;3.30;98.00;;;;;;5050799;28;20469;-66
2021/01/01 04:39:49;;;;;;;3.20;2.23;;;3.40;98.00;;;;;;5048679;28;20460;-66
2021/01/01 04:42:17;;;;;;;4.13;1.70;;;3.40;98.00;;;;;;5050605;28;20488;-65
2021/01/01 04:44:44;;;;;;;2.23;1.90;;;3.30;98.00;;;;;;5048581;28;20450;-65
2021/01/01 04:47:15;;;;;;;1.20;1.13;;;3.30;98.00;;;;;;5054252;28;20454;-64
2021/01/01 04:49:42;;;;;;;1.57;1.43;;;3.40;98.00;;;;;;5052013;28;20456;-66
2021/01/01 04:52:10;;;;;;;2.40;1.80;;;3.30;98.00;;;;;;5054180;28;20483;-65
2021/01/01 04:54:40;;;;;;;1.27;1.23;;;3.30;98.00;;;;;;5052020;28;20457;-64
2021/01/01 04:57:08;;;;;;;1.60;1.57;;;3.30;98.00;;;;;;5053782;28;20995;-66
2021/01/01 04:59:35;;;;;;;4.97;2.00;;;3.30;98.00;;;;;;5051939;28;20469;-65
2021/01/01 05:02:01;;;;;;;2.87;2.00;;;3.30;98.00;;;;;;5054015;28;20487;-65
2021/01/01 05:04:28;;;;;;;1.60;1.50;;;3.20;98.00;;;;;;5051780;28;20462;-65
2021/01/01 05:06:56;;;;;;;2.70;1.87;;;3.20;98.00;;;;;;5053673;28;20489;-65
2021/01/01 05:09:22;;;;;;;1.20;1.10;;;3.20;98.00;;;;;;5051411;28;20462;-66
2021/01/01 05:11:49;;;;;;;2.13;1.57;;;3.20;98.00;;;;;;5053788;28;20511;-64
2021/01/01 05:14:17;;;;;;;3.10;1.90;;;3.20;98.00;;;;;;5051350;28;20466;-65
2021/01/01 05:16:52;;;;;;;1.20;1.20;;;3.20;98.00;;;;;;5053745;28;20885;-65
2021/01/01 05:19:18;;;;;;;2.77;2.57;;;3.20;98.00;;;;;;5051327;28;20841;-67
2021/01/01 05:21:45;;;;;;;3.97;2.80;;;3.30;98.00;;;;;;5053513;28;20470;-66
2021/01/01 05:24:16;;;;;;;1.93;1.83;;;3.30;98.00;;;;;;5051422;28;20459;-66
2021/01/01 05:26:48;;;;;;;2.27;1.77;;;3.30;98.00;;;;;;5053832;28;20572;-66
2021/01/01 05:29:21;;;;;;;3.80;2.13;;;3.20;98.00;;;;;;5051115;28;20853;-65
2021/01/01 05:31:49;;;;;;;1.50;1.40;;;3.20;98.00;;;;;;5053658;28;20454;-66
2021/01/01 05:34:16;;;;;;;3.40;2.70;;;3.20;98.00;;;;;;5050717;28;20824;-65
2021/01/01 05:36:44;;;;;;;1.60;1.50;;;3.20;98.00;;;;;;5052900;28;20457;-65
2021/01/01 05:39:22;;;;;;;1.83;1.73;;;3.30;98.00;;;;;;5050548;28;20476;-65
2021/01/01 05:41:50;;;;;;;1.70;1.67;;;3.40;98.00;;;;;;5053008;28;20465;-65
2021/01/01 05:44:19;;;;;;;1.50;1.50;;;3.40;98.00;;;;;;5050354;28;20472;-64
2021/01/01 05:47:04;;;;;;;1.17;1.13;;;3.30;98.00;;;;;;5053231;28;20836;-66
2021/01/01 05:49:33;;;;;;;4.87;2.00;;;3.30;98.00;;;;;;5050803;28;21022;-66
2021/01/01 05:52:15;;;;;;;2.50;1.70;;;3.30;98.00;;;;;;5053098;28;20975;-65
2021/01/01 05:54:43;;;;;;;1.40;1.40;;;3.30;98.00;;;;;;5050382;28;20533;-64
2021/01/01 05:57:11;;;;;;;2.07;1.63;;;3.40;98.00;;;;;;5051773;28;20470;-65
2021/01/01 05:59:40;;;;;;;5.10;2.83;;;3.40;98.00;;;;;;5050404;28;20450;-65
2021/01/01 06:02:10;;;;;;;3.10;2.47;;;3.40;98.00;;;;;;5052796;28;20457;-66
2021/01/01 06:04:37;;;;;;;1.43;1.30;;;3.40;98.00;;;;;;5050470;28;20457;-65
2021/01/01 06:07:05;;;;;;;3.87;1.73;;;3.40;98.00;;;;;;5052507;28;20492;-65
2021/01/01 06:09:33;;;;;;;3.63;2.33;;;3.50;98.00;;;;;;5049213;28;20515;-65
2021/01/01 06:12:02;;;;;;;2.50;1.77;;;3.60;98.00;;;;;;5052492;28;20461;-66
2021/01/01 06:14:36;;;;;;;1.20;1.10;;;3.70;98.00;;;;;;5050150;28;20826;-65
2021/01/01 06:17:34;;;;;;;3.37;2.30;;;3.60;98.00;;;;;;5052069;28;20469;-66
2021/01/01 06:20:01;;;;;;;1.70;1.60;;;3.50;98.00;;;;;;5049463;28;20453;-65
2021/01/01 06:22:29;;;;;;;1.20;1.20;;;3.50;98.00;;;;;;5052089;28;20454;-65
2021/01/01 06:24:57;;;;;;;1.57;1.33;;;3.50;98.00;;;;;;5050333;28;20519;-66
2021/01/01 06:27:25;;;;;;;1.80;1.70;;;3.40;98.00;;;;;;5052607;28;20470;-65
2021/01/01 06:29:55;;;;;;;1.50;1.50;;;3.40;98.00;;;;;;5050398;28;20462;-65
2021/01/01 06:32:22;;;;;;;2.07;1.73;;;3.40;98.00;;;;;;5052316;28;20978;-66
2021/01/01 06:34:51;;;;;;;3.80;2.63;;;3.40;98.00;;;;;;5050362;28;20466;-65
2021/01/01 06:37:37;;;;;;;4.07;2.47;;;3.40;98.00;;;;;;5052231;28;20536;-64
2021/01/01 06:40:06;;;;;;;6.37;1.90;;;3.40;98.00;;;;;;5050308;28;20454;-66
2021/01/01 06:42:53;;;;;;;1.50;1.27;;;3.30;98.00;;;;;;5051220;28;20943;-65
2021/01/01 06:45:36;;;;;;;1.73;1.73;;;3.40;98.00;;;;;;5051189;28;20485;-66
2021/01/01 06:48:04;;;;;;;2.93;2.57;;;3.40;98.00;;;;;;5049955;28;20520;-65
2021/01/01 06:50:35;;;;;;;4.20;2.13;;;3.40;98.00;;;;;;5051897;28;20481;-64
2021/01/01 06:53:07;;;;;;;1.63;1.20;;;3.40;98.00;;;;;;5049944;28;20450;-66
2021/01/01 06:55:35;;;;;;;1.53;1.40;;;3.50;98.00;;;;;;5051652;28;20454;-65
2021/01/01 06:58:02;;;;;;;2.07;1.93;;;3.50;98.00;;;;;;5049781;28;20466;-65
2021/01/01 07:00:54;;;;;;;2.10;1.50;;;3.50;98.00;;;;;;5051772;28;20952;-65
2021/01/01 07:03:34;;;;;;;3.70;2.70;;;3.50;98.00;;;;;;5039900;28;20462;-65
2021/01/01 07:06:34;;;;;;;7.47;2.57;;;3.50;98.00;;;;;;5051682;28;20482;-64
2021/01/01 07:09:04;;;;;;;1.30;1.13;;;3.60;98.00;;;;;;5046448;28;20458;-64
2021/01/01 07:11:38;;;;;;;1.43;1.40;;;3.50;98.00;;;;;;5051461;28;20457;-65
2021/01/01 07:14:07;;;;;;;2.23;1.90;;;3.60;98.00;;;;;;5049608;28;20452;-65
2021/01/01 07:16:36;;;;;;;1.10;1.07;;;3.80;98.00;;;;;;5051469;28;20449;-65
2021/01/01 07:19:04;;;;;;;1.20;1.20;;;3.80;98.00;;;;;;5049673;28;20465;-65
2021/01/01 07:21:31;;;;;;;3.17;2.37;;;3.70;98.00;;;;;;5051371;28;20450;-65
2021/01/01 07:23:58;;;;;;;6.10;2.80;;;3.60;98.00;;;;;;5049407;28;20469;-65
2021/01/01 07:26:27;;;;;;;3.40;1.83;;;3.50;98.00;;;;;;5051217;28;20552;-65
2021/01/01 07:28:56;;;;;;;1.80;1.50;;;3.50;98.00;;;;;;5049494;28;20462;-65
2021/01/01 07:31:22;;;;;;;1.87;1.20;;;3.60;98.00;;;;;;5051371;28;21022;-66
2021/01/01 07:33:49;;;;;;;1.50;1.43;;;3.60;98.00;;;;;;5049297;28;20457;-67
2021/01/01 07:36:17;;;;;;;5.57;2.57;;;3.60;98.00;;;;;;5051219;28;20480;-66
2021/01/01 07:38:44;;;;;;;1.67;1.63;;;3.60;98.00;;;;;;5049080;28;20958;-66
2021/01/01 07:41:11;;;;;;;2.40;1.53;;;3.60;98.00;;;;;;5051062;28;20791;-65
2021/01/01 07:43:39;;;;;;;2.70;1.53;;;3.60;98.00;;;;;;5049249;28;20457;-66
2021/01/01 07:46:07;;;;;;;2.90;1.70;;;3.60;98.00;;;;;;5050931;28;20490;-66
2021/01/01 07:48:34;;;;;;;2.33;1.40;;;3.50;98.00;;;;;;5048897;28;20460;-66
2021/01/01 07:51:02;;;;;;;1.10;1.00;;;3.50;98.00;;;;;;5051289;28;20809;-64
2021/01/01 07:53:28;;;;;;;1.20;1.20;;;3.50;98.00;;;;;;5049299;28;20489;-66
2021/01/01 07:56:00;;;;;;;1.10;0.90;;;3.50;98.00;;;;;;5051085;28;20998;-66
2021/01/01 07:58:28;;;;;;;1.10;0.90;;;3.60;98.00;;;;;;5048782;28;21013;-66
2021/01/01 08:01:02;;;;;;;1.10;0.97;;;3.60;98.00;;;;;;5051287;28;20473;-65
2021/01/01 08:03:29;;;;;;;1.10;1.00;;;3.70;98.00;;;;;;5049117;28;20603;-66
2021/01/01 08:05:55;;;;;;;1.20;1.20;;;3.70;98.00;;;;;;5051196;28;20482;-65
2021/01/01 08:08:23;;;;;;;1.17;1.00;;;3.70;98.00;;;;;;5049082;28;20465;-65
2021/01/01 08:10:51;;;;;;;1.10;0.90;;;3.60;98.00;;;;;;5051173;28;20463;-66
2021/01/01 08:13:19;;;;;;;1.10;1.00;;;3.60;98.00;;;;;;5048925;28;20960;-66
2021/01/01 08:15:47;;;;;;;1.20;1.10;;;3.40;98.00;;;;;;5051120;28;20457;-64
2021/01/01 08:18:18;;;;;;;1.20;1.10;;;3.40;98.00;;;;;;5049244;28;20445;-66
2021/01/01 08:20:46;;;;;;;3.30;1.50;;;3.50;98.00;;;;;;5052501;28;21112;-67
2021/01/01 08:23:16;;;;;;;1.10;1.00;;;3.40;98.00;;;;;;5052811;28;20492;-65
2021/01/01 08:25:43;;;;;;;1.37;1.20;;;3.40;98.00;;;;;;5054616;28;20542;-65
2021/01/01 08:28:11;;;;;;;1.20;1.00;;;3.40;98.00;;;;;;5052684;28;20472;-65
2021/01/01 08:30:39;;;;;;;1.20;1.10;;;3.50;98.00;;;;;;5054579;28;20476;-66
2021/01/01 08:33:07;;;;;;;1.43;1.37;;;3.40;98.00;;;;;;5053428;28;20790;-66
2021/01/01 08:35:35;;;;;;;2.60;2.13;;;3.40;98.00;;;;;;5053262;28;20465;-65
2021/01/01 08:38:16;;;;;;;1.10;0.90;;;3.40;98.00;;;;;;5054456;28;20465;-65
2021/01/01 08:40:44;;;;;;;1.10;1.00;;;3.50;98.00;;;;;;5054486;28;21106;-64
2021/01/01 08:43:10;;;;;;;1.20;1.10;;;3.60;98.00;;;;;;5052423;28;20493;-64
2021/01/01 08:45:38;;;;;;;1.10;0.90;;;3.60;98.00;;;;;;5054074;28;20828;-64
2021/01/01 08:48:09;;;;;;;1.10;0.97;;;3.60;98.00;;;;;;5053864;28;20468;-65
2021/01/01 08:50:44;;;;;;;1.70;1.63;;;3.60;98.00;;;;;;5054074;28;20837;-67
2021/01/01 08:53:11;;;;;;;1.30;1.10;;;3.70;98.00;;;;;;5052209;28;20544;-65
2021/01/01 08:55:38;;;;;;;2.90;1.30;;;3.70;98.00;;;;;;5054132;28;20816;-66
2021/01/01 08:58:09;;;;;;;1.10;0.90;;;3.70;98.00;;;;;;5053870;28;20470;-67
2021/01/01 09:00:37;;;;;;;1.20;1.10;;;3.70;98.00;;;;;;5053931;28;20453;-66
2021/01/01 09:03:05;;;;;;;1.57;1.20;;;3.80;98.00;;;;;;5054020;28;20783;-65
2021/01/01 09:05:32;;;;;;;1.10;1.00;;;3.80;98.00;;;;;;5052234;28;20527;-65
2021/01/01 09:08:07;;;;;;;1.20;1.00;;;3.80;98.00;;;;;;5053729;28;20512;-66
2021/01/01 09:10:34;;;;;;;1.20;1.10;;;3.80;98.00;;;;;;5053051;28;20453;-66
2021/01/01 09:13:21;;;;;;;1.57;1.10;;;3.80;98.00;;;;;;5053800;28;20545;-65
2021/01/01 09:15:59;;;;;;;1.10;0.90;;;3.80;98.00;;;;;;5053642;28;20461;-66
2021/01/01 09:18:43;;;;;;;1.10;0.90;;;3.80;98.00;;;;;;5051711;28;20477;-66
2021/01/01 09:21:10;;;;;;;1.20;1.00;;;3.90;98.00;;;;;;5051927;28;20463;-66
2021/01/01 09:23:37;;;;;;;1.10;0.90;;;4.00;98.00;;;;;;5049794;28;20450;-66
2021/01/01 09:26:04;;;;;;;1.20;1.03;;;4.00;98.00;;;;;;5052926;28;20486;-65
2021/01/01 09:28:31;;;;;;;1.17;1.00;;;3.90;98.00;;;;;;5051052;28;20459;-64
2021/01/01 09:30:58;;;;;;;1.40;1.10;;;4.00;98.00;;;;;;5052569;28;20481;-65
2021/01/01 09:33:25;;;;;;;1.20;1.00;;;4.10;98.00;;;;;;5049781;28;20462;-64
2021/01/01 09:35:52;;;;;;;1.20;1.10;;;4.00;98.00;;;;;;5052627;28;20540;-65
2021/01/01 09:38:19;;;;;;;1.20;1.00;;;4.10;98.00;;;;;;5050493;28;20459;-65
2021/01/01 09:40:46;;;;;;;1.20;1.10;;;4.10;98.00;;;;;;5051677;28;20459;-65
2021/01/01 09:43:13;;;;;;;1.63;1.10;;;4.10;98.00;;;;;;5051087;28;20994;-65
2021/01/01 09:45:40;;;;;;;1.10;0.90;;;4.10;98.00;;;;;;5051203;28;20486;-64
2021/01/01 09:48:07;;;;;;;1.57;1.20;;;4.20;98.00;;;;;;5051805;28;20462;-64
2021/01/01 09:50:34;;;;;;;1.13;0.90;;;4.20;98.00;;;;;;5050093;28;20515;-65
2021/01/01 09:53:01;;;;;;;1.20;1.00;;;4.20;98.00;;;;;;5051755;28;20822;-65
2021/01/01 09:55:28;;;;;;;1.13;0.90;;;4.20;98.00;;;;;;5049913;28;20454;-65
2021/01/01 09:57:56;;;;;;;1.10;0.90;;;4.20;98.00;;;;;;5051403;28;20528;-64
2021/01/01 10:00:23;;;;;;;1.10;0.90;;;5.40;98.00;;;;;;5049727;28;20626;-65
2021/01/01 10:02:49;;;;;;;1.33;1.20;;;6.10;98.00;;;;;;5051483;28;20463;-66
2021/01/01 10:05:16;;;;;;;2.03;1.50;;;6.10;98.00;;;;;;5048751;28;20465;-65
2021/01/01 10:07:42;;;;;;;1.20;1.00;;;5.90;98.00;;;;;;5050249;28;20465;-65
2021/01/01 10:10:10;;;;;;;1.20;1.00;;;5.70;98.00;;;;;;5049350;28;20462;-66
2021/01/01 10:12:37;;;;;;;1.20;1.00;;;5.30;98.00;;;;;;5051345;28;20473;-65
2021/01/01 10:15:06;;;;;;;1.57;1.47;;;5.00;98.00;;;;;;5049608;28;20465;-65
2021/01/01 10:17:33;;;;;;;1.40;1.10;;;5.00;98.00;;;;;;5051322;28;20455;-65
2021/01/01 10:20:01;;;;;;;1.20;1.10;;;4.90;98.00;;;;;;5049547;28;20494;-65
2021/01/01 10:22:28;;;;;;;1.20;1.00;;;4.70;98.00;;;;;;5049762;28;21029;-66
2021/01/01 10:24:54;;;;;;;1.20;0.97;;;4.60;98.00;;;;;;5048433;28;20458;-66
2021/01/01 10:27:21;;;;;;;1.20;1.00;;;4.50;98.00;;;;;;5050967;28;20487;-65
2021/01/01 10:29:48;;;;;;;1.30;1.03;;;4.40;98.00;;;;;;5049142;28;20464;-65
2021/01/01 10:32:15;;;;;;;1.20;0.90;;;4.50;98.00;;;;;;5050968;28;20820;-65
2021/01/01 10:34:44;;;;;;;1.20;0.90;;;4.50;98.00;;;;;;5049373;28;20457;-67
2021/01/01 10:37:10;;;;;;;1.20;0.90;;;4.50;98.00;;;;;;5050959;28;20454;-66
2021/01/01 10:39:37;;;;;;;1.30;1.00;;;4.50;98.00;;;;;;5048954;28;20489;-66
2021/01/01 10:42:05;;;;;;;1.20;1.00;;;4.50;98.00;;;;;;5050935;28;20534;-66
2021/01/01 10:44:31;;;;;;;1.50;1.30;;;4.50;98.00;;;;;;5048855;28;20488;-65
2021/01/01 10:46:58;;;;;;;1.20;1.00;;;4.50;98.00;;;;;;5050813;28;20489;-64
2021/01/01 10:49:26;;;;;;;1.20;0.90;;;4.60;98.00;;;;;;5049281;28;20962;-65
2021/01/01 10:51:56;;;;;;;1.20;1.00;;;4.60;98.00;;;;;;5050951;28;20461;-65
2021/01/01 10:54:22;;;;;;;1.20;1.00;;;4.60;98.00;;;;;;5049282;28;20455;-65
2021/01/01 10:56:49;;;;;;;1.47;1.23;;;4.50;98.00;;;;;;5050578;28;20454;-65
2021/01/01 10:59:15;;;;;;;1.40;1.23;;;4.70;98.00;;;;;;5048640;28;20461;-63
2021/01/01 11:01:42;;;;;;;1.20;0.90;;;4.70;98.00;;;;;;5049437;28;20466;-65
2021/01/01 11:04:08;;;;;;;1.20;0.90;;;4.60;98.00;;;;;;5048807;28;20457;-64
2021/01/01 11:06:36;;;;;;;1.20;0.90;;;4.60;98.00;;;;;;5050319;28;20488;-64
2021/01/01 11:09:04;;;;;;;1.47;1.30;;;4.60;98.00;;;;;;5048918;28;20949;-64
2021/01/01 11:11:30;;;;;;;1.20;0.97;;;4.60;98.00;;;;;;5050300;28;20457;-64
2021/01/01 11:14:03;;;;;;;1.20;1.00;;;4.60;98.00;;;;;;5049019;28;20461;-65
2021/01/01 12:23:01;;;;;;;2.23;1.20;;;5.10;98.00;;;;;;5053686;28;20442;-65
2021/01/01 12:25:28;;;;;;;1.30;1.20;;;5.00;98.00;;;;;;5052169;28;20458;-66
2021/01/01 12:27:59;;;;;;;1.20;0.90;;;4.90;98.00;;;;;;5053701;28;20462;-66
2021/01/01 12:30:27;;;;;;;1.20;1.00;;;4.90;98.00;;;;;;5051763;28;20831;-66
2021/01/01 12:32:54;;;;;;;1.20;1.00;;;4.80;98.00;;;;;;5053576;28;20531;-66
2021/01/01 12:35:21;;;;;;;1.57;1.17;;;4.90;98.00;;;;;;5051997;28;20459;-67
2021/01/01 12:38:01;;;;;;;1.20;1.00;;;4.90;98.00;;;;;;5053552;28;20516;-67
2021/01/01 12:40:28;;;;;;;1.50;1.40;;;5.10;98.00;;;;;;5051550;28;20457;-66
2021/01/01 12:42:56;;;;;;;1.20;0.97;;;5.10;98.00;;;;;;5053305;28;20455;-65
2021/01/01 12:45:23;;;;;;;1.70;1.20;;;5.10;98.00;;;;;;5050280;28;20499;-67
2021/01/01 12:47:51;;;;;;;1.20;1.00;;;5.00;98.00;;;;;;5052963;28;20513;-67
2021/01/01 12:50:17;;;;;;;1.20;1.00;;;5.00;98.00;;;;;;5051419;28;20457;-66
2021/01/01 12:52:55;;;;;;;1.20;0.90;;;5.00;98.00;;;;;;5053141;28;20744;-66
2021/01/01 12:55:23;;;;;;;1.20;1.07;;;4.90;98.00;;;;;;5051702;28;20492;-65
2021/01/01 12:57:50;;;;;;;1.20;1.00;;;4.80;98.00;;;;;;5052965;28;20478;-66
2021/01/01 13:00:19;;;;;;;1.20;1.00;;;4.90;98.00;;;;;;5050847;28;20482;-66
2021/01/01 13:02:45;;;;;;;3.50;1.63;;;4.90;98.00;;;;;;5052889;28;20467;-65
2021/01/01 13:05:13;;;;;;;1.20;1.00;;;5.00;98.00;;;;;;5051115;28;20458;-66
2021/01/01 13:07:42;;;;;;;1.20;1.10;;;4.90;98.00;;;;;;5052549;28;20493;-66
2021/01/01 13:10:09;;;;;;;1.20;0.90;;;5.00;98.00;;;;;;5051058;28;20826;-67
2021/01/01 13:12:35;;;;;;;1.40;1.20;;;5.00;98.00;;;;;;5052659;28;20463;-66
2021/01/01 13:15:03;;;;;;;1.20;1.00;;;5.10;98.00;;;;;;5051472;28;20448;-65
2021/01/01 13:17:32;;;;;;;1.20;1.00;;;5.20;98.00;;;;;;5052628;28;20455;-65
2021/01/01 13:19:59;;;;;;;1.70;1.33;;;5.10;98.00;;;;;;5050997;28;20458;-67
2021/01/01 13:22:25;;;;;;;1.20;1.00;;;5.10;98.00;;;;;;5051202;28;20474;-67
2021/01/01 13:24:52;;;;;;;1.33;1.27;;;5.00;98.00;;;;;;5050706;28;20454;-65
2021/01/01 13:27:18;;;;;;;1.20;0.90;;;5.10;98.00;;;;;;5052354;28;20829;-66
2021/01/01 13:29:45;;;;;;;1.20;1.00;;;5.00;98.00;;;;;;5050791;28;20834;-66
2021/01/01 13:32:12;;;;;;;1.67;1.20;;;5.10;98.00;;;;;;5051409;28;20458;-65
2021/01/01 13:34:39;;;;;;;1.20;1.10;;;5.10;98.00;;;;;;5050704;28;20834;-66
2021/01/01 13:37:06;;;;;;;1.77;1.17;;;5.00;98.00;;;;;;5052403;28;20825;-67
2021/01/01 13:39:34;;;;;;;1.20;0.90;;;5.00;98.00;;;;;;5050773;28;20856;-66
2021/01/01 13:42:00;;;;;;;1.20;1.00;;;4.90;98.00;;;;;;5052444;28;20661;-66
2021/01/01 13:44:27;;;;;;;1.53;1.43;;;5.10;98.00;;;;;;5049486;28;20462;-65
2021/01/01 13:46:53;;;;;;;1.30;1.10;;;5.00;98.00;;;;;;5052575;28;20829;-66
2021/01/01 13:49:20;;;;;;;1.20;1.00;;;5.30;98.00;;;;;;5050726;28;20459;-65
2021/01/01 13:51:47;;;;;;;1.30;1.20;;;5.30;98.00;;;;;;5051558;28;21022;-65
2021/01/01 13:54:13;;;;;;;1.20;0.90;;;5.20;98.00;;;;;;5050602;28;20453;-66
2021/01/01 13:56:40;;;;;;;1.20;1.17;;;5.10;98.00;;;;;;5052329;28;20454;-66
2021/01/01 13:59:06;;;;;;;2.30;1.00;;;5.20;98.00;;;;;;5050468;28;20502;-68
2021/01/01 14:01:33;;;;;;;1.83;1.10;;;5.10;98.00;;;;;;5052172;28;20823;-65
2021/01/01 14:04:00;;;;;;;1.20;1.10;;;5.00;98.00;;;;;;5050430;28;20970;-66
2021/01/01 14:06:30;;;;;;;1.20;0.93;;;5.00;98.00;;;;;;5051959;28;20573;-66
2021/01/01 14:08:58;;;;;;;1.20;1.00;;;4.90;98.00;;;;;;5050359;28;20460;-66
2021/01/01 14:11:25;;;;;;;1.20;0.90;;;4.90;98.00;;;;;;5052050;28;20569;-66
2021/01/01 14:13:51;;;;;;;1.70;1.43;;;4.90;98.00;;;;;;5050491;28;20466;-66